ADDS METAR Data INFO
IDs: Format: Raw Decoded Include TAF

Data at: 0350 UTC 18 Oct 2017

KMYJ 180335Z AUTO 00000KT 7SM CLR 08/05 A3016 RMK AO2
KMYJ 180315Z AUTO 00000KT 10SM CLR 11/05 A3016 RMK AO2
KMYJ 180255Z AUTO 00000KT 10SM CLR 11/05 A3016 RMK AO2
KMYJ 180235Z AUTO 00000KT 10SM CLR 11/05 A3015 RMK AO2
KMYJ 180215Z AUTO 00000KT 10SM CLR 10/05 A3015 RMK AO2
KMYJ 180155Z AUTO 00000KT 7SM CLR 11/06 A3015 RMK AO2
KMYJ 180135Z AUTO 00000KT 10SM CLR 11/06 A3015 RMK AO2
KMYJ 180115Z AUTO 00000KT 10SM CLR 12/06 A3015 RMK AO2
KMYJ 180055Z AUTO 00000KT 10SM CLR 12/06 A3015 RMK AO2
KMYJ 180035Z AUTO 00000KT 7SM CLR 13/06 A3015 RMK AO2
KMYJ 180015Z AUTO 00000KT 7SM CLR 13/06 A3015 RMK AO2
KMYJ 172355Z AUTO 16005KT 10SM CLR 15/06 A3015 RMK AO2
KMYJ 172335Z AUTO 17005KT 7SM CLR 15/06 A3014 RMK AO2
KMYJ 172315Z AUTO 18004KT 7SM CLR 17/06 A3015 RMK AO2
KMYJ 172255Z AUTO 18006KT 7SM CLR 18/06 A3015 RMK AO2
KMYJ 172235Z AUTO 19009KT 7SM CLR 19/05 A3015 RMK AO2
KMYJ 172215Z AUTO 18008KT 7SM CLR 20/05 A3015 RMK AO2
KMYJ 172155Z AUTO 18007KT 7SM CLR 20/05 A3016 RMK AO2
KMYJ 172015Z AUTO 21009G16KT 10SM CLR 20/05 A3017 RMK AO2
KMYJ 171955Z AUTO 21009KT 7SM CLR 21/05 A3019 RMK AO2
KMYJ 171935Z AUTO 19008KT 10SM 20/05 A3019 RMK AO2 PWINO
KMYJ 171915Z AUTO 19010KT 7SM CLR 20/06 A3021 RMK AO2
KMYJ 171855Z AUTO 21011G15KT 7SM CLR 20/05 A3022 RMK AO2
KMYJ 171835Z AUTO 21011G16KT 10SM CLR 19/05 A3023 RMK AO2
KMYJ 171815Z AUTO 18010KT 10SM CLR 18/05 A3024 RMK AO2
KMYJ 171755Z AUTO 18009G15KT 7SM CLR 18/05 A3025 RMK AO2
KMYJ 171735Z AUTO 20008G17KT 7SM CLR 17/06 A3026 RMK AO2
KMYJ 171715Z AUTO 22010G16KT 10SM CLR 18/06 A3027 RMK AO2
KMYJ 171655Z AUTO 19009G15KT 7SM CLR 17/06 A3028 RMK AO2
KMYJ 171635Z AUTO 19010KT 7SM CLR 16/05 A3028 RMK AO2
KMYJ 171615Z AUTO 20007KT 10SM CLR 16/05 A3029 RMK AO2
KMYJ 171555Z AUTO 19008G14KT 10SM CLR 15/05 A3029 RMK AO2
KMYJ 171535Z AUTO 19007KT 7SM CLR 15/05 A3029 RMK AO2
KMYJ 171515Z AUTO 19008KT 10SM CLR 13/05 A3029 RMK AO2
KMYJ 171455Z AUTO 20009KT 10SM CLR 12/05 A3029 RMK AO2
KMYJ 171435Z AUTO 20006KT 7SM CLR 11/04 A3029 RMK AO2
KMYJ 171415Z AUTO 20008KT 7SM CLR 10/03 A3029 RMK AO2
KMYJ 171355Z AUTO 19008KT 7SM CLR 08/03 A3028 RMK AO2
KMYJ 171335Z AUTO 17008KT 10SM CLR 08/03 A3028 RMK AO2
KMYJ 171315Z AUTO 00000KT 7SM CLR 07/03 A3028 RMK AO2
KMYJ 171255Z AUTO 00000KT 10SM CLR 06/03 A3027 RMK AO2
KMYJ 171235Z AUTO 00000KT 10SM CLR 06/03 A3027 RMK AO2
KMYJ 171215Z AUTO 00000KT 10SM CLR 06/03 A3028 RMK AO2
KMYJ 171155Z AUTO 00000KT 10SM CLR 06/03 A3027 RMK AO2
KMYJ 171135Z AUTO 00000KT 10SM CLR 05/03 A3028 RMK AO2
KMYJ 171115Z AUTO 00000KT 10SM CLR 06/03 A3028 RMK AO2
KMYJ 171055Z AUTO 00000KT 10SM CLR 06/03 A3028 RMK AO2
KMYJ 171035Z AUTO 00000KT 7SM CLR 05/03 A3027 RMK AO2
KMYJ 171015Z AUTO 00000KT 10SM CLR 05/03 A3027 RMK AO2
KMYJ 170955Z AUTO 00000KT 10SM CLR 05/03 A3027 RMK AO2
KMYJ 170935Z AUTO 00000KT 10SM CLR 06/03 A3026 RMK AO2
KMYJ 170915Z AUTO 00000KT 10SM CLR 06/03 A3026 RMK AO2
KMYJ 170855Z AUTO 00000KT 10SM CLR 05/03 A3026 RMK AO2
KMYJ 170835Z AUTO 00000KT 7SM CLR 05/03 A3026 RMK AO2
KMYJ 170815Z AUTO 00000KT 10SM CLR 05/03 A3027 RMK AO2
KMYJ 170755Z AUTO 00000KT 10SM CLR 06/03 A3027 RMK AO2
KMYJ 170735Z AUTO 00000KT 10SM CLR 06/03 A3027 RMK AO2
KMYJ 170715Z AUTO 00000KT 10SM CLR 07/03 A3027 RMK AO2
KMYJ 170655Z AUTO 20004KT 10SM CLR 07/03 A3026 RMK AO2
KMYJ 170635Z AUTO 19005KT 10SM CLR 07/03 A3026 RMK AO2
KMYJ 170615Z AUTO 19006KT 10SM CLR 07/03 A3026 RMK AO2
KMYJ 170555Z AUTO 00000KT 10SM CLR 06/04 A3027 RMK AO2
KMYJ 170535Z AUTO 19005KT 7SM CLR 06/03 A3027 RMK AO2
KMYJ 170515Z AUTO 20005KT 10SM CLR 07/04 A3028 RMK AO2
KMYJ 170455Z AUTO 20006KT 7SM CLR 07/04 A3028 RMK AO2
KMYJ 170435Z AUTO 20005KT 10SM CLR 08/04 A3028 RMK AO2
KMYJ 170415Z AUTO 19006KT 10SM CLR 06/03 A3028 RMK AO2
KMYJ 170355Z AUTO 00000KT 7SM CLR 06/03 A3028 RMK AO2
KMYJ 170335Z AUTO 00000KT 10SM CLR 07/03 A3029 RMK AO2
KMYJ 170315Z AUTO 00000KT 10SM CLR 07/03 A3029 RMK AO2
KMYJ 170255Z AUTO 00000KT 10SM CLR 07/03 A3029 RMK AO2
KMYJ 170235Z AUTO 00000KT 10SM CLR 07/03 A3028 RMK AO2
KMYJ 170215Z AUTO 00000KT 10SM CLR 08/03 A3028 RMK AO2
KMYJ 170155Z AUTO 00000KT 10SM CLR 08/03 A3028 RMK AO2
KMYJ 170135Z AUTO 00000KT 10SM CLR 08/04 A3028 RMK AO2
KMYJ 170115Z AUTO 00000KT 10SM CLR 08/04 A3027 RMK AO2
KMYJ 170055Z AUTO 00000KT 10SM CLR 08/04 A3027 RMK AO2
KMYJ 170035Z AUTO 00000KT 10SM CLR 08/04 A3027 RMK AO2
KMYJ 170015Z AUTO 20004KT 10SM CLR 11/03 A3027 RMK AO2
KMYJ 162355Z AUTO 20003KT 10SM CLR 12/02 A3027 RMK AO2
KMYJ 162335Z AUTO 19003KT 7SM CLR 14/02 A3026 RMK AO2
KMYJ 162315Z AUTO 20003KT 10SM CLR 16/01 A3026 RMK AO2
KMYJ 162255Z AUTO 21004KT 7SM CLR 17/01 A3027 RMK AO2
KMYJ 162235Z AUTO 22005KT 7SM CLR 18/01 A3028 RMK AO2
KMYJ 162215Z AUTO 21004KT 10SM CLR 18/01 A3028 RMK AO2
KMYJ 162155Z AUTO 19005KT 7SM CLR 18/02 A3028 RMK AO2
KMYJ 162135Z AUTO 24003KT 7SM CLR 18/01 A3029 RMK AO2
KMYJ 162115Z AUTO 25007KT 10SM CLR 18/01 A3030 RMK AO2
KMYJ 162055Z AUTO 26007KT 7SM CLR 18/01 A3030 RMK AO2
KMYJ 162035Z AUTO 29003KT 10SM CLR 18/01 A3031 RMK AO2
KMYJ 162015Z AUTO 27007KT 10SM CLR 18/01 A3031 RMK AO2
KMYJ 161955Z AUTO 24007KT 10SM CLR 18/01 A3031 RMK AO2
KMYJ 161935Z AUTO 26004KT 7SM CLR 18/00 A3032 RMK AO2
KMYJ 161915Z AUTO 29006KT 7SM CLR 18/01 A3033 RMK AO2
KMYJ 161835Z AUTO 26004KT 10SM CLR 17/01 A3035 RMK AO2
KMYJ 161815Z AUTO 25008KT 232V292 7SM CLR 17/02 A3036 RMK AO2
KMYJ 161755Z AUTO 23007KT 10SM CLR 17/02 A3037 RMK AO2
KMYJ 161735Z AUTO 25006KT 10SM CLR 17/02 A3038 RMK AO2
KMYJ 161715Z AUTO 24005KT 10SM CLR 16/02 A3038 RMK AO2
KMYJ 161655Z AUTO 25008KT 7SM CLR 16/02 A3039 RMK AO2
KMYJ 161635Z AUTO 26009KT 10SM CLR 15/03 A3039 RMK AO2
KMYJ 161615Z AUTO 25009KT 10SM CLR 15/02 A3039 RMK AO2
KMYJ 161555Z AUTO 25008KT 10SM CLR 15/03 A3039 RMK AO2